Time;durP1;ratioP1;P1;durP2;ratioP2;P2;SDS_P1;SDS_P2;PMS_P1;PMS_P2;Temp;Humidity;BMP_temperature;BMP_pressure;BME280_temperature;BME280_humidity;BME280_pressure;Samples;Min_cycle;Max_cycle;Signal;HPM_P1;HPM_P2
2022/07/31 00:06:08;;;;;;;1.40;0.85;;;22.50;99.50;;;;;;6732423;88;20684;-76
2022/07/31 00:16:08;;;;;;;1.52;0.90;;;22.30;99.90;;;;;;6732249;88;20241;-76
2022/07/31 00:26:09;;;;;;;1.20;0.90;;;22.10;99.90;;;;;;6737259;88;20723;-78
2022/07/31 00:36:09;;;;;;;1.42;0.82;;;21.70;99.90;;;;;;6727730;88;20196;-77
2022/07/31 00:46:10;;;;;;;3.45;0.90;;;21.60;99.90;;;;;;6731034;88;20208;-77
2022/07/31 00:56:10;;;;;;;1.55;0.85;;;21.50;99.90;;;;;;6731778;88;20205;-77
2022/07/31 01:06:12;;;;;;;1.30;0.70;;;21.50;99.90;;;;;;6737525;88;20223;-77
2022/07/31 01:16:14;;;;;;;1.25;0.80;;;21.30;99.90;;;;;;6733406;88;20189;-76
2022/07/31 01:26:44;;;;;;;1.65;0.85;;;21.20;99.90;;;;;;6733698;88;20320;-77
2022/07/31 01:36:52;;;;;;;1.23;0.70;;;21.00;99.90;;;;;;6729805;88;20263;-77
2022/07/31 01:46:54;;;;;;;2.15;1.10;;;20.80;99.90;;;;;;6732135;88;20226;-77
2022/07/31 01:56:58;;;;;;;1.37;0.70;;;20.80;99.90;;;;;;6730837;88;20193;-77
2022/07/31 02:07:03;;;;;;;1.15;0.70;;;20.90;99.90;;;;;;6732855;88;20257;-76
2022/07/31 02:17:03;;;;;;;1.30;0.70;;;20.90;99.90;;;;;;6736705;88;20196;-77
2022/07/31 02:27:05;;;;;;;1.12;0.60;;;20.90;99.90;;;;;;6732311;88;20611;-77
2022/07/31 02:37:06;;;;;;;1.10;0.70;;;21.10;99.90;;;;;;6733840;88;20200;-77
2022/07/31 02:47:07;;;;;;;1.05;0.62;;;20.90;99.90;;;;;;6731800;88;20336;-77
2022/07/31 02:57:08;;;;;;;1.60;0.60;;;20.90;99.90;;;;;;6730494;88;20210;-77
2022/07/31 03:07:09;;;;;;;0.98;0.60;;;20.90;99.90;;;;;;6729904;88;20217;-77
2022/07/31 03:17:10;;;;;;;1.17;0.75;;;21.00;99.90;;;;;;6733406;88;20255;-77
2022/07/31 03:27:11;;;;;;;1.17;0.60;;;20.80;99.90;;;;;;6736385;88;20296;-78
2022/07/31 03:37:12;;;;;;;1.60;0.70;;;21.00;99.90;;;;;;6730586;88;20277;-78
2022/07/31 03:47:12;;;;;;;1.37;0.80;;;21.00;99.90;;;;;;6739938;88;20247;-76
2022/07/31 03:57:14;;;;;;;1.65;0.70;;;21.00;99.90;;;;;;6734171;88;20224;-76
2022/07/31 04:07:15;;;;;;;0.90;0.60;;;20.50;99.90;;;;;;6730687;88;20186;-76
2022/07/31 04:17:16;;;;;;;1.20;0.70;;;20.50;99.90;;;;;;6732816;88;20300;-76
2022/07/31 04:27:17;;;;;;;1.00;0.60;;;20.80;99.90;;;;;;6733198;88;20180;-76
2022/07/31 04:37:18;;;;;;;1.10;0.73;;;20.80;99.90;;;;;;6730994;88;20265;-76
2022/07/31 04:47:18;;;;;;;1.07;0.67;;;21.00;99.90;;;;;;6737396;77;20203;-78
2022/07/31 04:57:19;;;;;;;1.48;0.85;;;20.90;99.90;;;;;;6733266;88;20519;-78
2022/07/31 05:07:20;;;;;;;1.75;1.02;;;20.80;99.90;;;;;;6735122;88;20217;-77
2022/07/31 05:17:21;;;;;;;1.08;0.65;;;21.10;99.90;;;;;;6733071;88;20234;-78
2022/07/31 05:27:21;;;;;;;1.48;0.80;;;21.20;99.90;;;;;;6735546;88;20200;-76
2022/07/31 05:37:22;;;;;;;1.00;0.60;;;21.30;99.90;;;;;;6734370;88;20939;-77
2022/07/31 05:47:22;;;;;;;2.25;0.80;;;21.60;99.90;;;;;;6736371;88;20186;-77
2022/07/31 05:57:23;;;;;;;1.27;0.70;;;21.50;99.90;;;;;;6736597;88;20192;-77
2022/07/31 06:07:24;;;;;;;1.23;0.75;;;22.00;99.90;;;;;;6747587;88;20199;-77
2022/07/31 06:17:24;;;;;;;1.30;0.80;;;22.00;99.90;;;;;;6736187;88;20239;-78
2022/07/31 06:27:25;;;;;;;1.20;0.73;;;22.20;99.90;;;;;;6734744;88;20207;-78
2022/07/31 06:37:25;;;;;;;1.05;0.60;;;22.40;99.90;;;;;;6736513;88;20301;-80
2022/07/31 06:47:26;;;;;;;1.30;0.75;;;22.70;99.90;;;;;;6738271;88;20202;-80
2022/07/31 06:57:27;;;;;;;1.48;0.90;;;23.00;99.90;;;;;;6738233;88;20224;-78
2022/07/31 07:07:27;;;;;;;1.47;0.77;;;23.00;99.90;;;;;;6738118;88;20605;-78
2022/07/31 07:17:28;;;;;;;1.10;0.68;;;23.30;99.90;;;;;;6739583;88;20310;-78
2022/07/31 07:27:28;;;;;;;1.20;0.70;;;23.60;99.90;;;;;;6738720;88;20192;-78
2022/07/31 07:37:29;;;;;;;1.08;0.68;;;24.00;99.90;;;;;;6738167;88;20317;-78
2022/07/31 07:47:29;;;;;;;1.45;0.88;;;23.90;99.70;;;;;;6736388;88;20621;-77
2022/07/31 07:57:31;;;;;;;2.55;1.05;;;24.00;99.60;;;;;;6736590;88;20190;-78
2022/07/31 08:07:34;;;;;;;1.33;0.82;;;23.70;99.90;;;;;;6740893;88;20203;-78
2022/07/31 08:17:35;;;;;;;1.60;0.98;;;24.20;99.90;;;;;;6728442;88;20752;-79
2022/07/31 08:27:35;;;;;;;1.20;0.70;;;24.60;99.90;;;;;;6731150;88;20393;-77
2022/07/31 08:37:36;;;;;;;1.33;0.70;;;24.70;99.40;;;;;;6727767;88;20647;-76
2022/07/31 08:47:40;;;;;;;1.10;0.60;;;25.60;98.10;;;;;;6730887;88;20307;-76
2022/07/31 08:57:41;;;;;;;1.50;0.85;;;26.10;96.50;;;;;;6729689;88;20210;-76
2022/07/31 09:07:42;;;;;;;1.50;0.90;;;26.10;96.20;;;;;;6733987;88;20193;-78
2022/07/31 09:17:42;;;;;;;1.23;0.73;;;25.80;96.00;;;;;;6731403;88;20193;-76
2022/07/31 09:27:44;;;;;;;1.40;0.65;;;25.30;97.40;;;;;;6727179;88;20188;-78
2022/07/31 09:37:48;;;;;;;1.20;0.70;;;25.80;96.70;;;;;;6735207;88;20608;-77
2022/07/31 09:48:03;;;;;;;1.37;0.77;;;25.90;96.10;;;;;;6747931;88;20225;-77
2022/07/31 09:58:04;;;;;;;0.90;0.60;;;26.20;96.30;;;;;;6741969;88;20180;-77
2022/07/31 10:08:04;;;;;;;1.10;0.68;;;26.90;95.30;;;;;;6743648;88;20211;-76
2022/07/31 10:18:07;;;;;;;0.77;0.47;;;27.60;94.00;;;;;;6736727;88;20241;-76
2022/07/31 10:28:08;;;;;;;0.70;0.40;;;28.90;92.60;;;;;;6737344;88;20286;-78
2022/07/31 10:38:19;;;;;;;1.05;0.60;;;29.60;91.80;;;;;;6749478;77;20662;-78
2022/07/31 10:48:21;;;;;;;0.90;0.50;;;30.00;91.30;;;;;;6738539;88;20504;-78
2022/07/31 10:58:23;;;;;;;0.53;0.30;;;29.50;90.60;;;;;;6719062;88;20294;-79
2022/07/31 11:08:24;;;;;;;0.70;0.40;;;28.60;91.90;;;;;;6713067;88;20187;-80
2022/07/31 11:18:25;;;;;;;0.60;0.40;;;29.60;91.10;;;;;;6707974;88;20215;-77
2022/07/31 11:28:26;;;;;;;0.80;0.45;;;30.50;90.20;;;;;;6708711;88;20195;-78
2022/07/31 11:38:28;;;;;;;1.27;0.40;;;31.10;88.80;;;;;;6716605;88;20197;-77
2022/07/31 11:48:31;;;;;;;0.80;0.50;;;29.60;89.60;;;;;;6716869;88;20205;-77
2022/07/31 11:58:32;;;;;;;0.80;0.57;;;30.70;88.10;;;;;;6707133;88;20199;-77
2022/07/31 12:08:34;;;;;;;0.77;0.40;;;32.00;85.90;;;;;;6715669;88;20752;-77
2022/07/31 12:18:45;;;;;;;0.77;0.45;;;32.20;83.90;;;;;;6712473;88;20241;-76
2022/07/31 12:29:05;;;;;;;0.90;0.43;;;32.40;84.60;;;;;;6714183;88;20293;-77
2022/07/31 12:39:05;;;;;;;0.80;0.50;;;33.30;81.70;;;;;;6711957;88;20224;-77
2022/07/31 12:49:07;;;;;;;1.45;0.80;;;33.20;79.00;;;;;;6716324;88;20956;-77
2022/07/31 12:59:08;;;;;;;1.30;0.73;;;33.00;79.60;;;;;;6713931;88;20660;-77
2022/07/31 13:09:09;;;;;;;1.00;0.52;;;32.80;79.70;;;;;;6717326;88;20236;-77
2022/07/31 13:19:09;;;;;;;2.30;1.08;;;32.10;81.30;;;;;;6722239;88;20209;-77
2022/07/31 13:29:10;;;;;;;1.00;0.55;;;33.30;79.90;;;;;;6714850;88;20207;-77
2022/07/31 13:39:11;;;;;;;0.98;0.50;;;33.90;78.80;;;;;;6718948;88;20189;-78
2022/07/31 13:49:11;;;;;;;1.15;0.62;;;34.70;79.50;;;;;;6728775;88;20190;-78
2022/07/31 13:59:12;;;;;;;2.08;1.05;;;34.80;77.30;;;;;;6721221;88;20236;-77
2022/07/31 14:09:13;;;;;;;1.17;0.65;;;34.40;79.20;;;;;;6723387;88;20253;-78
2022/07/31 14:19:13;;;;;;;0.80;0.50;;;33.10;80.20;;;;;;6717436;88;20214;-77
2022/07/31 14:29:14;;;;;;;1.75;1.02;;;33.10;81.30;;;;;;6711099;88;20296;-78
2022/07/31 14:39:15;;;;;;;1.20;0.70;;;33.00;81.40;;;;;;6714662;88;20642;-77
2022/07/31 14:49:15;;;;;;;1.27;0.70;;;33.80;79.40;;;;;;6711255;88;20654;-77
2022/07/31 14:59:16;;;;;;;1.80;0.85;;;33.40;79.40;;;;;;6712720;88;20650;-77
2022/07/31 15:09:17;;;;;;;1.37;0.80;;;31.80;81.80;;;;;;6703018;88;20229;-78
2022/07/31 15:19:18;;;;;;;1.17;0.70;;;31.20;84.20;;;;;;6714221;88;20350;-77
2022/07/31 15:29:18;;;;;;;0.93;0.70;;;31.70;83.10;;;;;;6716425;88;20349;-77
2022/07/31 15:39:19;;;;;;;1.02;0.60;;;31.50;83.30;;;;;;6713419;88;20191;-77
2022/07/31 15:49:20;;;;;;;1.47;0.77;;;31.10;83.50;;;;;;6707433;88;20191;-77
2022/07/31 15:59:20;;;;;;;1.00;0.60;;;31.00;83.50;;;;;;6714572;88;20219;-76
2022/07/31 16:09:22;;;;;;;1.40;0.70;;;31.20;83.20;;;;;;6709659;88;20198;-77
2022/07/31 16:19:24;;;;;;;0.80;0.50;;;30.30;83.90;;;;;;6704918;88;20292;-77
2022/07/31 16:29:24;;;;;;;1.30;0.67;;;29.90;84.40;;;;;;6715577;88;20208;-77
2022/07/31 16:39:25;;;;;;;1.85;0.70;;;29.60;85.40;;;;;;6729808;77;20612;-79
2022/07/31 16:49:25;;;;;;;1.02;0.60;;;29.50;85.70;;;;;;6726828;88;20190;-78
2022/07/31 16:59:26;;;;;;;0.88;0.50;;;29.00;87.10;;;;;;6709774;88;20215;-78
2022/07/31 17:09:27;;;;;;;1.67;0.70;;;29.10;86.80;;;;;;6710972;88;20634;-78
2022/07/31 17:19:28;;;;;;;1.10;0.60;;;29.10;87.90;;;;;;6717070;88;20225;-76
2022/07/31 17:29:28;;;;;;;1.20;0.60;;;28.80;87.30;;;;;;6706223;88;20209;-76
2022/07/31 17:39:29;;;;;;;1.00;0.60;;;28.20;89.00;;;;;;6707120;88;20217;-76
2022/07/31 17:49:29;;;;;;;1.05;0.65;;;27.90;90.10;;;;;;6706124;88;20203;-77
2022/07/31 17:59:30;;;;;;;1.27;0.70;;;27.90;90.50;;;;;;6704732;88;20209;-76
2022/07/31 18:09:35;;;;;;;1.10;0.80;;;27.50;91.30;;;;;;6705765;88;20260;-76
2022/07/31 18:19:35;;;;;;;1.20;0.62;;;27.30;91.90;;;;;;6703135;88;20223;-75
2022/07/31 18:29:36;;;;;;;1.33;0.70;;;27.10;92.30;;;;;;6703091;88;20221;-73
2022/07/31 18:39:37;;;;;;;1.00;0.60;;;26.90;92.50;;;;;;6708412;88;20205;-76
2022/07/31 18:49:37;;;;;;;0.83;0.50;;;26.80;92.70;;;;;;6712497;88;20515;-77
2022/07/31 18:59:38;;;;;;;0.70;0.40;;;26.60;93.10;;;;;;6705602;88;20358;-77
2022/07/31 19:09:39;;;;;;;1.02;0.60;;;26.40;93.60;;;;;;6708939;88;20332;-76
2022/07/31 19:19:39;;;;;;;1.00;0.50;;;26.30;94.00;;;;;;6705691;88;20617;-76
2022/07/31 19:29:40;;;;;;;1.05;0.50;;;26.00;94.80;;;;;;6705500;88;20222;-76
2022/07/31 19:39:40;;;;;;;0.70;0.37;;;25.90;95.50;;;;;;6704373;88;20224;-77
2022/07/31 19:49:45;;;;;;;1.33;0.40;;;25.60;96.20;;;;;;6700528;88;20377;-77
2022/07/31 19:59:46;;;;;;;0.95;0.40;;;25.40;97.10;;;;;;6710152;88;22148;-78
2022/07/31 20:09:46;;;;;;;1.00;0.60;;;25.30;97.70;;;;;;6709712;88;20203;-77
2022/07/31 20:19:47;;;;;;;1.45;0.55;;;25.00;99.10;;;;;;6712737;88;20200;-77
2022/07/31 20:29:47;;;;;;;0.80;0.40;;;24.90;99.90;;;;;;6714032;88;20214;-77
2022/07/31 20:39:48;;;;;;;0.90;0.30;;;24.70;99.90;;;;;;6710449;88;20240;-78
2022/07/31 20:49:48;;;;;;;0.62;0.35;;;24.70;99.90;;;;;;6707603;88;20650;-80
2022/07/31 20:59:49;;;;;;;1.20;0.77;;;24.40;99.90;;;;;;6716204;88;20186;-78
2022/07/31 21:09:50;;;;;;;0.90;0.50;;;24.20;99.90;;;;;;6711550;88;20182;-79
2022/07/31 21:19:50;;;;;;;0.80;0.33;;;24.10;99.90;;;;;;6713332;88;20193;-80
2022/07/31 21:29:51;;;;;;;1.03;0.37;;;23.90;99.90;;;;;;6715414;88;20523;-79
2022/07/31 21:39:52;;;;;;;0.90;0.40;;;23.80;99.90;;;;;;6727546;88;20222;-80
2022/07/31 21:49:54;;;;;;;0.75;0.40;;;23.70;99.90;;;;;;6709853;88;20266;-79
2022/07/31 21:59:54;;;;;;;0.80;0.40;;;23.60;99.90;;;;;;6716815;88;21070;-79
2022/07/31 22:09:55;;;;;;;0.95;0.40;;;23.50;99.90;;;;;;6715156;88;20221;-78
2022/07/31 22:19:59;;;;;;;0.70;0.40;;;23.30;99.90;;;;;;6712485;88;22123;-79
2022/07/31 22:30:00;;;;;;;0.80;0.30;;;23.00;99.90;;;;;;6708743;88;20201;-78
2022/07/31 22:40:01;;;;;;;1.12;0.40;;;22.90;99.90;;;;;;6722186;77;20219;-79
2022/07/31 22:50:02;;;;;;;0.52;0.32;;;22.90;99.90;;;;;;6735043;88;20344;-80
2022/07/31 23:00:05;;;;;;;0.80;0.40;;;22.80;99.90;;;;;;6722235;88;20303;-80
2022/07/31 23:10:09;;;;;;;0.80;0.43;;;22.70;99.90;;;;;;6721129;88;20185;-81
2022/07/31 23:20:10;;;;;;;0.80;0.40;;;22.60;99.90;;;;;;6722114;88;20195;-80
2022/07/31 23:30:11;;;;;;;0.70;0.30;;;22.60;99.90;;;;;;6726200;88;20701;-80
2022/07/31 23:40:12;;;;;;;0.93;0.40;;;22.50;99.90;;;;;;6726397;88;20750;-79
2022/07/31 23:50:14;;;;;;;0.68;0.37;;;22.60;99.90;;;;;;6724068;88;20206;-80
